Terminal Aerodrome Forecast
Issued by NWS

Home | Current Version | Previous Version | Text Only | Print | Product List | Glossary On
Versions: 1 2 3 4 5 6 7 8 9 10 11 12 13 14 15 16 17 18 19 20 21 22 23 24 25 26 27 28
585
FTUS41 KBUF 171519 AAA
TAFJHW
TAF AMD
KJHW 171519Z 1715/1812 16005KT P6SM BKN060
     FM171900 18008KT 4SM SHRA VCTS OVC040CB
     FM172300 18006KT P6SM VCSH OVC040
     FM180200 18006KT 4SM SHRA OVC040 PROB30 1802/1803 2SM TS
      OVC025CB
     FM180500 19009KT P6SM VCSH OVC030
     FM180900 20008KT P6SM OVC007
      AMD LTD TO CLD VIS AND WIND=

USA.gov is the U.S. government's official web portal to all federal, state and local government web resources and services.